Time;durP1;ratioP1;P1;durP2;ratioP2;P2;SDS_P1;SDS_P2;PMS_P1;PMS_P2;Temp;Humidity;BMP_temperature;BMP_pressure;BME280_temperature;BME280_humidity;BME280_pressure;Samples;Min_cycle;Max_cycle;Signal;HPM_P1;HPM_P2
2022/01/19 00:01:11;;;;;;;9.77;7.07;;;5.20;99.90;;;;;;5049535;28;20183;-55
2022/01/19 00:03:36;;;;;;;9.67;7.30;;;5.20;99.90;;;;;;5043568;28;20456;-53
2022/01/19 00:06:02;;;;;;;9.70;7.80;;;5.20;99.90;;;;;;5048888;28;20194;-51
2022/01/19 00:08:28;;;;;;;9.20;6.90;;;5.20;99.90;;;;;;5046047;28;20197;-53
2022/01/19 00:10:54;;;;;;;12.40;8.02;;;5.20;99.90;;;;;;5047555;28;20635;-54
2022/01/19 00:13:20;;;;;;;10.97;7.57;;;5.20;99.90;;;;;;5038237;28;20213;-55
2022/01/19 00:15:47;;;;;;;8.52;7.43;;;5.20;99.90;;;;;;5049203;28;20227;-53
2022/01/19 00:18:13;;;;;;;11.32;7.00;;;5.20;99.90;;;;;;5038520;28;20316;-53
2022/01/19 00:20:39;;;;;;;13.05;7.72;;;5.20;99.90;;;;;;5035152;28;20298;-53
2022/01/19 00:23:05;;;;;;;10.23;7.47;;;5.20;99.90;;;;;;5033641;28;20270;-56
2022/01/19 00:25:32;;;;;;;9.90;6.80;;;5.20;99.90;;;;;;5050650;28;20269;-54
2022/01/19 00:27:58;;;;;;;10.43;7.15;;;5.20;99.90;;;;;;5043562;28;20186;-57
2022/01/19 00:30:24;;;;;;;10.57;7.25;;;5.20;99.90;;;;;;5044562;28;20217;-56
2022/01/19 00:32:49;;;;;;;7.67;6.30;;;5.10;99.90;;;;;;5033011;28;20202;-56
2022/01/19 00:35:15;;;;;;;10.97;7.03;;;5.20;99.90;;;;;;5037125;28;20182;-56
2022/01/19 00:37:42;;;;;;;10.60;7.60;;;5.20;99.90;;;;;;5045112;28;20175;-56
2022/01/19 00:40:12;;;;;;;9.63;6.78;;;5.20;99.90;;;;;;5047046;28;20185;-56
2022/01/19 00:42:38;;;;;;;9.07;6.35;;;5.20;99.90;;;;;;5040153;28;20554;-58
2022/01/19 00:45:05;;;;;;;8.43;6.38;;;5.20;99.90;;;;;;5041892;28;20704;-54
2022/01/19 00:47:31;;;;;;;9.73;6.63;;;5.20;99.90;;;;;;5028596;28;20191;-54
2022/01/19 00:49:57;;;;;;;9.73;6.50;;;5.20;99.90;;;;;;5042108;28;20253;-56
2022/01/19 00:52:22;;;;;;;9.37;7.37;;;5.20;99.90;;;;;;5045720;28;21110;-55
2022/01/19 00:54:48;;;;;;;11.73;6.93;;;5.20;99.90;;;;;;5036093;28;20175;-56
2022/01/19 00:57:13;;;;;;;11.37;6.90;;;5.20;99.90;;;;;;5031187;28;20667;-56
2022/01/19 00:59:39;;;;;;;12.70;6.70;;;5.20;99.90;;;;;;5042180;28;20197;-55
2022/01/19 01:02:05;;;;;;;9.63;6.83;;;5.20;99.90;;;;;;5031614;28;20282;-54
2022/01/19 01:04:32;;;;;;;10.23;7.47;;;5.20;99.90;;;;;;5034124;28;20232;-56
2022/01/19 01:06:58;;;;;;;10.38;6.80;;;5.20;99.90;;;;;;5042600;28;20179;-54
2022/01/19 01:09:24;;;;;;;10.70;7.82;;;5.20;99.90;;;;;;5026605;28;20608;-53
2022/01/19 01:12:01;;;;;;;9.67;7.20;;;5.20;99.90;;;;;;5028936;28;20211;-57
2022/01/19 01:18:18;;;;;;;9.52;6.20;;;5.30;99.90;;;;;;5032157;28;20243;-55
2022/01/19 01:20:01;;;;;;;11.65;7.40;;;5.20;99.90;;;;;;5049462;28;20531;-57
2022/01/19 01:22:27;;;;;;;9.55;6.32;;;5.20;99.90;;;;;;5039010;28;20190;-55
2022/01/19 01:24:53;;;;;;;9.87;7.40;;;5.20;99.90;;;;;;5047534;28;20181;-55
2022/01/19 01:27:19;;;;;;;9.40;7.30;;;5.20;99.90;;;;;;5027198;28;20191;-54
2022/01/19 01:29:44;;;;;;;9.93;7.33;;;5.20;99.90;;;;;;5029648;28;20572;-53
2022/01/19 01:32:10;;;;;;;7.93;6.43;;;5.30;99.90;;;;;;5027716;28;20963;-57
2022/01/19 01:34:36;;;;;;;9.73;6.60;;;5.30;99.90;;;;;;5029448;28;20179;-55
2022/01/19 01:37:02;;;;;;;9.52;7.43;;;5.30;99.90;;;;;;5025988;28;20194;-57
2022/01/19 01:39:28;;;;;;;15.90;7.50;;;5.20;99.90;;;;;;5028214;28;20261;-54
2022/01/19 01:41:53;;;;;;;12.03;7.17;;;5.20;99.90;;;;;;5031768;28;20222;-57
2022/01/19 01:44:19;;;;;;;9.07;6.53;;;5.20;99.90;;;;;;5033353;28;20201;-56
2022/01/19 01:46:49;;;;;;;9.80;6.60;;;5.20;99.90;;;;;;5035030;28;20190;-57
2022/01/19 01:49:28;;;;;;;10.50;6.82;;;5.20;99.90;;;;;;5048883;28;20185;-53
2022/01/19 01:54:40;;;;;;;9.85;7.15;;;5.20;99.90;;;;;;5034940;28;20206;-55
2022/01/19 01:57:06;;;;;;;10.30;7.47;;;5.20;99.90;;;;;;5045938;28;20178;-55
2022/01/19 01:59:34;;;;;;;11.20;7.82;;;5.20;99.90;;;;;;5035293;28;20182;-54
2022/01/19 02:01:59;;;;;;;10.95;7.35;;;5.20;99.90;;;;;;5024343;28;20485;-56
2022/01/19 02:04:26;;;;;;;8.40;6.83;;;5.20;99.90;;;;;;5043614;28;20197;-50
2022/01/19 02:07:15;;;;;;;12.18;7.70;;;5.20;99.90;;;;;;5037769;28;20190;-56
2022/01/19 02:09:39;;;;;;;9.35;7.20;;;5.20;99.90;;;;;;5039957;28;20197;-56
2022/01/19 02:25:46;;;;;;;9.75;6.80;;;5.10;99.90;;;;;;5047732;28;20183;-53
2022/01/19 02:41:39;;;;;;;11.10;7.88;;;5.00;99.90;;;;;;5050015;28;20289;-54
2022/01/19 02:44:06;;;;;;;11.88;7.78;;;5.00;99.90;;;;;;5035839;28;20237;-53
2022/01/19 02:49:16;;;;;;;11.77;7.20;;;5.00;99.90;;;;;;5049048;28;20645;-55
2022/01/19 02:51:46;;;;;;;10.80;7.00;;;4.90;99.90;;;;;;5026459;28;20204;-55
2022/01/19 02:54:17;;;;;;;11.05;7.43;;;4.90;99.90;;;;;;5048815;28;20207;-51
2022/01/19 02:56:46;;;;;;;14.63;8.10;;;4.90;99.90;;;;;;5021951;28;20195;-55
2022/01/19 02:59:20;;;;;;;11.43;7.15;;;4.90;99.90;;;;;;5033740;28;20175;-55
2022/01/19 03:09:42;;;;;;;11.93;7.88;;;4.90;99.90;;;;;;5042555;28;20249;-56
2022/01/19 03:12:08;;;;;;;13.98;9.18;;;4.90;99.90;;;;;;5035226;28;20894;-53
2022/01/19 03:14:34;;;;;;;11.90;7.15;;;4.90;99.90;;;;;;5033371;28;20332;-54
2022/01/19 03:17:00;;;;;;;11.73;7.50;;;4.90;99.90;;;;;;5033139;28;20290;-53
2022/01/19 03:19:28;;;;;;;9.93;7.30;;;4.80;99.90;;;;;;5040910;28;20594;-53
2022/01/19 03:21:53;;;;;;;12.32;7.80;;;4.80;99.90;;;;;;5045581;28;20186;-54
2022/01/19 03:24:19;;;;;;;11.23;8.50;;;4.80;99.90;;;;;;5039424;28;20193;-51
2022/01/19 03:26:45;;;;;;;12.97;8.40;;;4.80;99.90;;;;;;5031165;28;20540;-54
2022/01/19 03:29:11;;;;;;;11.05;7.57;;;4.80;99.90;;;;;;5030842;28;20425;-56
2022/01/19 03:31:36;;;;;;;10.83;7.87;;;4.80;99.90;;;;;;5031811;28;20199;-52
2022/01/19 03:34:02;;;;;;;10.53;7.40;;;4.70;99.90;;;;;;5030202;28;20189;-54
2022/01/19 03:36:28;;;;;;;9.93;7.35;;;4.70;99.90;;;;;;5032921;28;20186;-54
2022/01/19 03:38:54;;;;;;;12.27;8.80;;;4.70;99.90;;;;;;5037661;28;20193;-54
2022/01/19 03:41:20;;;;;;;13.73;8.27;;;4.70;99.90;;;;;;5030307;28;20199;-56
2022/01/19 03:43:45;;;;;;;12.17;7.77;;;4.60;99.90;;;;;;5045279;28;20416;-55
2022/01/19 03:46:15;;;;;;;12.27;8.53;;;4.60;99.90;;;;;;5031532;28;20237;-53
2022/01/19 03:48:54;;;;;;;12.23;8.10;;;4.60;99.90;;;;;;5038663;28;20449;-56
2022/01/19 03:51:20;;;;;;;12.38;8.35;;;4.50;99.90;;;;;;5036994;28;20237;-52
2022/01/19 03:53:46;;;;;;;14.60;9.30;;;4.40;99.90;;;;;;5047381;28;20551;-55
2022/01/19 03:56:11;;;;;;;11.70;8.80;;;4.30;99.90;;;;;;5030022;28;20443;-52
2022/01/19 03:58:38;;;;;;;16.67;9.70;;;4.20;99.90;;;;;;5019950;28;20191;-52
2022/01/19 04:01:05;;;;;;;15.02;10.43;;;4.10;99.90;;;;;;5044621;28;20269;-53
2022/01/19 04:04:10;;;;;;;13.45;9.98;;;4.00;99.90;;;;;;5048399;28;20182;-56
2022/01/19 04:06:22;;;;;;;14.13;9.25;;;4.00;99.90;;;;;;5033669;28;20281;-53
2022/01/19 04:08:47;;;;;;;14.57;10.70;;;3.90;99.90;;;;;;5030166;28;20210;-56
2022/01/19 04:11:16;;;;;;;15.73;10.07;;;3.80;99.90;;;;;;5033543;28;20269;-54
2022/01/19 04:13:58;;;;;;;15.23;9.35;;;3.70;99.90;;;;;;5029050;28;20183;-53
2022/01/19 04:16:24;;;;;;;13.75;9.07;;;3.60;99.90;;;;;;5035853;28;20187;-53
2022/01/19 04:18:53;;;;;;;17.30;10.90;;;3.50;99.90;;;;;;5034329;28;20540;-56
2022/01/19 04:21:18;;;;;;;15.27;9.43;;;3.50;99.90;;;;;;5045313;28;20417;-54
2022/01/19 04:23:44;;;;;;;16.30;10.37;;;3.40;99.90;;;;;;5038165;28;20190;-56
2022/01/19 04:26:10;;;;;;;13.47;9.80;;;3.20;99.90;;;;;;5034831;28;20186;-55
2022/01/19 04:28:36;;;;;;;14.90;10.13;;;3.20;99.90;;;;;;5037569;28;20433;-55
2022/01/19 04:31:02;;;;;;;16.65;10.73;;;3.10;99.90;;;;;;5045400;28;20198;-54
2022/01/19 04:33:28;;;;;;;15.70;10.93;;;3.00;99.90;;;;;;5038846;28;20187;-53
2022/01/19 04:36:06;;;;;;;20.42;10.80;;;3.00;99.90;;;;;;5029546;28;20230;-54
2022/01/19 04:44:32;;;;;;;19.33;11.27;;;2.70;99.90;;;;;;5037650;28;20266;-54
2022/01/19 04:54:18;;;;;;;14.55;10.85;;;2.60;99.90;;;;;;5042477;28;20229;-51
2022/01/19 05:05:55;;;;;;;23.90;14.50;;;2.30;99.90;;;;;;5035485;28;20183;-55
2022/01/19 05:08:45;;;;;;;19.80;12.20;;;2.20;99.90;;;;;;5019610;28;20195;-56
2022/01/19 05:13:55;;;;;;;17.40;11.73;;;2.20;99.90;;;;;;5038340;28;20726;-55
2022/01/19 05:16:22;;;;;;;19.43;13.37;;;2.20;99.90;;;;;;5027631;28;20274;-54
2022/01/19 05:18:49;;;;;;;22.65;15.77;;;2.10;99.90;;;;;;5026583;28;20578;-56
2022/01/19 05:21:14;;;;;;;19.38;12.82;;;2.10;99.90;;;;;;5019858;28;20255;-54
2022/01/19 05:23:40;;;;;;;17.10;10.97;;;2.10;99.90;;;;;;5029550;28;20185;-55
2022/01/19 05:26:06;;;;;;;23.23;13.70;;;2.00;99.90;;;;;;5026661;28;20837;-56
2022/01/19 05:28:31;;;;;;;21.20;13.07;;;2.00;99.90;;;;;;5029142;28;20198;-55
2022/01/19 05:30:57;;;;;;;19.80;12.50;;;2.00;99.90;;;;;;5023348;28;20230;-52
2022/01/19 05:33:23;;;;;;;21.17;13.50;;;1.90;99.90;;;;;;5022269;28;20277;-54
2022/01/19 05:35:48;;;;;;;23.63;12.37;;;1.90;99.90;;;;;;5026237;28;20190;-52
2022/01/19 05:38:14;;;;;;;20.10;13.17;;;1.80;99.90;;;;;;5018735;28;20640;-55
2022/01/19 05:40:39;;;;;;;22.23;13.80;;;1.80;99.90;;;;;;5029809;28;20187;-56
2022/01/19 05:43:05;;;;;;;20.97;12.63;;;1.80;99.90;;;;;;5031432;28;20554;-54
2022/01/19 05:45:31;;;;;;;19.13;12.53;;;1.70;99.90;;;;;;5034034;28;20184;-56
2022/01/19 05:47:57;;;;;;;21.27;12.10;;;1.70;99.90;;;;;;5039205;28;20230;-53
2022/01/19 05:50:24;;;;;;;18.80;12.87;;;1.70;99.90;;;;;;5033860;28;20565;-56
2022/01/19 05:52:50;;;;;;;18.38;11.73;;;1.60;99.90;;;;;;5047987;28;20546;-53
2022/01/19 05:55:15;;;;;;;22.25;13.88;;;1.50;99.90;;;;;;5044136;28;20185;-55
2022/01/19 05:57:41;;;;;;;19.87;12.17;;;1.50;99.90;;;;;;5030520;28;20547;-57
2022/01/19 06:00:08;;;;;;;20.27;13.63;;;1.40;99.90;;;;;;5041805;28;21013;-56
2022/01/19 06:02:33;;;;;;;22.80;13.15;;;1.40;99.90;;;;;;5019939;28;20195;-58
2022/01/19 06:04:59;;;;;;;21.60;13.20;;;1.30;99.90;;;;;;5021854;28;20178;-57
2022/01/19 06:07:28;;;;;;;21.43;13.07;;;1.30;99.90;;;;;;5022704;28;20260;-59
2022/01/19 06:10:03;;;;;;;22.13;14.07;;;1.20;99.90;;;;;;5045709;28;20178;-57
2022/01/19 06:12:29;;;;;;;23.98;14.45;;;1.30;99.90;;;;;;5028833;28;20199;-54
2022/01/19 06:14:55;;;;;;;22.50;13.10;;;1.30;99.90;;;;;;5047739;28;20185;-55
2022/01/19 06:17:20;;;;;;;22.20;12.57;;;1.30;99.90;;;;;;5049002;28;20185;-57
2022/01/19 06:19:48;;;;;;;21.73;13.70;;;1.30;99.90;;;;;;5048541;28;20182;-52
2022/01/19 06:22:14;;;;;;;18.70;12.50;;;1.20;99.90;;;;;;5048622;28;20645;-53
2022/01/19 06:24:40;;;;;;;26.80;14.95;;;1.20;99.90;;;;;;5048640;28;20182;-56
2022/01/19 06:27:06;;;;;;;26.30;14.33;;;1.10;99.90;;;;;;5039557;28;20185;-54
2022/01/19 06:29:31;;;;;;;27.10;14.30;;;1.10;99.90;;;;;;5044333;28;20840;-52
2022/01/19 06:31:57;;;;;;;23.10;13.60;;;1.00;99.90;;;;;;5041597;28;20313;-55
2022/01/19 06:34:22;;;;;;;24.80;13.93;;;1.00;99.90;;;;;;5036356;28;20595;-55
2022/01/19 06:36:51;;;;;;;24.37;14.73;;;0.90;99.90;;;;;;5033329;28;20195;-56
2022/01/19 06:39:17;;;;;;;22.85;15.07;;;0.90;99.90;;;;;;5028643;28;20175;-54
2022/01/19 06:41:42;;;;;;;26.03;14.53;;;0.80;99.90;;;;;;5036660;28;20186;-51
2022/01/19 06:44:08;;;;;;;27.87;15.97;;;0.80;99.90;;;;;;5048652;28;20644;-54
2022/01/19 06:46:34;;;;;;;29.03;15.60;;;0.80;99.90;;;;;;5048504;28;20179;-55
2022/01/19 06:48:59;;;;;;;22.90;13.73;;;0.90;99.90;;;;;;5048457;28;20204;-55
2022/01/19 06:51:25;;;;;;;25.90;14.60;;;1.00;99.90;;;;;;5047345;28;20214;-54
2022/01/19 06:53:52;;;;;;;27.03;14.97;;;0.90;99.90;;;;;;5048901;28;20433;-55
2022/01/19 06:56:18;;;;;;;28.52;17.02;;;0.90;99.90;;;;;;5033245;28;20237;-56
2022/01/19 06:58:44;;;;;;;27.43;17.43;;;0.90;99.90;;;;;;5046379;28;20190;-58
2022/01/19 07:01:10;;;;;;;28.83;18.93;;;0.80;99.90;;;;;;5052446;28;20420;-54
2022/01/19 07:03:35;;;;;;;25.55;16.70;;;0.80;99.90;;;;;;5048865;28;20434;-53
2022/01/19 07:06:01;;;;;;;24.80;15.27;;;0.80;99.90;;;;;;5029576;28;20175;-55
2022/01/19 07:08:27;;;;;;;24.57;14.90;;;0.80;99.90;;;;;;5032441;28;20194;-57
2022/01/19 07:10:53;;;;;;;28.20;16.10;;;0.70;99.90;;;;;;5035553;28;20241;-58
2022/01/19 07:13:19;;;;;;;25.67;15.30;;;0.70;99.90;;;;;;5035335;28;20652;-61
2022/01/19 07:15:45;;;;;;;24.95;16.58;;;0.80;99.90;;;;;;5045929;28;20462;-58
2022/01/19 07:18:11;;;;;;;23.17;14.50;;;0.80;99.90;;;;;;5046798;28;20748;-52
2022/01/19 07:20:37;;;;;;;22.87;15.23;;;0.80;99.90;;;;;;5041009;28;20416;-54
2022/01/19 07:23:02;;;;;;;23.20;15.53;;;0.80;99.90;;;;;;5039652;28;20178;-57
2022/01/19 07:25:29;;;;;;;28.00;16.30;;;0.70;99.90;;;;;;5051678;28;20218;-55
2022/01/19 07:27:55;;;;;;;27.35;15.18;;;0.80;99.90;;;;;;5051496;28;20424;-56
2022/01/19 07:30:22;;;;;;;26.15;15.32;;;0.70;99.90;;;;;;5048890;28;20236;-54
2022/01/19 07:32:49;;;;;;;28.83;16.48;;;0.70;99.90;;;;;;5023663;28;20592;-52
2022/01/19 07:35:16;;;;;;;26.17;16.30;;;0.70;99.90;;;;;;5029823;28;20179;-54
2022/01/19 07:37:42;;;;;;;26.90;17.20;;;0.70;99.90;;;;;;5032285;28;20673;-58
2022/01/19 07:40:08;;;;;;;27.73;16.88;;;0.70;99.90;;;;;;5039213;28;20206;-55
2022/01/19 07:42:34;;;;;;;28.15;16.50;;;0.70;99.90;;;;;;5040286;28;20932;-57
2022/01/19 07:45:00;;;;;;;25.60;16.27;;;0.80;99.90;;;;;;5051084;28;20181;-57
2022/01/19 07:47:27;;;;;;;29.20;17.50;;;0.80;99.90;;;;;;5049661;28;20253;-58
2022/01/19 07:49:53;;;;;;;31.08;16.98;;;0.80;99.90;;;;;;5040275;28;20234;-54
2022/01/19 07:52:21;;;;;;;33.42;17.75;;;0.80;99.90;;;;;;5050408;28;20336;-59
2022/01/19 07:54:47;;;;;;;32.28;17.50;;;0.80;99.90;;;;;;5043812;28;20557;-59
2022/01/19 07:57:12;;;;;;;31.27;18.80;;;0.90;99.90;;;;;;5036203;28;20186;-56
2022/01/19 07:59:38;;;;;;;34.10;20.53;;;1.00;99.90;;;;;;5033667;28;20187;-57
2022/01/19 08:02:04;;;;;;;29.97;18.70;;;1.00;99.90;;;;;;5046098;28;20209;-56
2022/01/19 08:04:29;;;;;;;29.93;19.17;;;1.10;99.90;;;;;;5040419;28;20265;-58
2022/01/19 08:06:55;;;;;;;32.70;20.53;;;1.20;99.90;;;;;;5031266;28;20450;-56
2022/01/19 08:09:25;;;;;;;32.30;19.87;;;1.30;99.90;;;;;;5030383;28;20191;-55
2022/01/19 08:11:51;;;;;;;36.67;21.15;;;1.30;99.90;;;;;;5048483;28;20288;-56
2022/01/19 08:14:17;;;;;;;36.03;21.37;;;1.30;99.90;;;;;;5048695;28;20182;-54
2022/01/19 08:16:42;;;;;;;37.53;21.30;;;1.50;99.90;;;;;;5042912;28;20429;-52
2022/01/19 08:19:08;;;;;;;38.63;22.47;;;1.60;99.90;;;;;;5043173;28;20174;-57
2022/01/19 08:21:34;;;;;;;39.03;22.20;;;1.80;99.90;;;;;;5049906;28;20565;-51
2022/01/19 08:23:59;;;;;;;40.40;23.93;;;2.10;99.90;;;;;;5040576;28;21049;-51
2022/01/19 08:26:25;;;;;;;36.73;23.00;;;2.40;99.90;;;;;;5039306;28;20218;-54
2022/01/19 08:28:50;;;;;;;38.47;23.60;;;2.80;99.90;;;;;;5050009;28;20608;-55
2022/01/19 08:31:16;;;;;;;41.03;24.50;;;3.20;99.90;;;;;;5037681;28;20289;-56
2022/01/19 08:33:42;;;;;;;33.93;21.60;;;3.70;99.90;;;;;;5029898;28;20285;-54
2022/01/19 08:36:07;;;;;;;32.27;20.43;;;3.90;99.90;;;;;;5047933;28;20205;-57
2022/01/19 08:38:33;;;;;;;30.07;19.70;;;4.40;99.90;;;;;;5029558;28;20183;-54
2022/01/19 08:40:59;;;;;;;24.13;16.10;;;4.90;99.90;;;;;;5037237;28;20187;-54
2022/01/19 08:43:25;;;;;;;23.37;16.90;;;5.70;99.90;;;;;;5041844;28;20182;-55
2022/01/19 08:45:51;;;;;;;20.30;14.50;;;6.30;99.90;;;;;;5033154;28;20448;-56
2022/01/19 08:48:18;;;;;;;18.30;14.00;;;6.90;99.90;;;;;;5049275;28;20189;-53
2022/01/19 08:50:44;;;;;;;15.30;12.60;;;7.70;99.90;;;;;;5040755;28;20469;-52
2022/01/19 08:53:09;;;;;;;13.90;11.13;;;8.00;99.90;;;;;;5028978;28;20477;-57
2022/01/19 08:55:35;;;;;;;14.33;12.53;;;8.60;99.90;;;;;;5036459;28;20194;-53
2022/01/19 08:58:01;;;;;;;15.60;12.10;;;9.00;99.90;;;;;;5041827;28;20189;-54
2022/01/19 09:00:26;;;;;;;13.10;11.50;;;9.40;99.90;;;;;;5045819;28;20190;-54
2022/01/19 09:02:52;;;;;;;13.93;11.70;;;9.70;99.90;;;;;;5028999;28;20195;-55
2022/01/19 09:05:18;;;;;;;13.30;11.50;;;10.10;98.20;;;;;;5031168;28;20179;-54
2022/01/19 09:07:44;;;;;;;14.30;11.80;;;9.90;97.70;;;;;;5031735;28;20186;-56
2022/01/19 09:10:14;;;;;;;13.20;11.80;;;10.40;96.70;;;;;;5048304;28;20512;-56
2022/01/19 09:12:41;;;;;;;13.47;11.70;;;10.80;95.40;;;;;;5037754;28;20221;-55
2022/01/19 09:15:08;;;;;;;15.07;12.13;;;10.90;93.40;;;;;;5048093;28;20824;-53
2022/01/19 09:17:34;;;;;;;12.50;11.30;;;10.70;93.70;;;;;;5045452;28;20836;-55
2022/01/19 09:20:00;;;;;;;14.20;12.80;;;11.20;92.20;;;;;;5049011;28;20456;-55
2022/01/19 09:22:25;;;;;;;11.80;10.70;;;11.80;91.00;;;;;;5048932;28;20456;-56
2022/01/19 09:24:51;;;;;;;12.20;11.00;;;11.50;87.90;;;;;;5034783;28;20789;-55
2022/01/19 09:27:18;;;;;;;12.50;11.30;;;11.70;88.70;;;;;;5040648;28;20191;-53
2022/01/19 09:29:45;;;;;;;12.07;10.87;;;11.70;88.00;;;;;;5033136;28;20269;-56
2022/01/19 09:32:12;;;;;;;11.33;10.27;;;11.90;86.20;;;;;;5040120;28;21007;-55
2022/01/19 09:34:40;;;;;;;12.93;11.73;;;12.50;86.10;;;;;;5034464;28;20456;-53
2022/01/19 09:37:06;;;;;;;11.23;10.23;;;12.60;84.10;;;;;;5030570;28;20440;-56
2022/01/19 09:39:32;;;;;;;12.10;10.90;;;13.20;82.60;;;;;;5041856;28;20426;-54
2022/01/19 09:41:57;;;;;;;11.40;10.30;;;12.90;77.00;;;;;;5028679;28;20179;-56
2022/01/19 09:44:26;;;;;;;11.77;10.67;;;13.40;75.10;;;;;;5044403;28;20194;-56
2022/01/19 09:46:52;;;;;;;11.70;10.60;;;13.80;72.10;;;;;;5040375;28;20201;-56
2022/01/19 09:49:18;;;;;;;11.90;10.80;;;13.90;72.20;;;;;;5026844;28;20458;-54
2022/01/19 09:51:46;;;;;;;11.47;10.47;;;13.90;71.90;;;;;;5027151;28;20469;-55
2022/01/19 09:54:23;;;;;;;13.80;12.60;;;13.80;69.80;;;;;;5039281;28;20429;-54
2022/01/19 09:56:50;;;;;;;12.13;11.13;;;13.90;68.00;;;;;;5047743;28;20448;-54
2022/01/19 09:59:16;;;;;;;13.70;12.60;;;14.40;68.40;;;;;;5048244;28;20429;-53
2022/01/19 10:02:01;;;;;;;13.30;12.30;;;15.00;67.70;;;;;;5029801;28;20448;-54
2022/01/19 10:04:29;;;;;;;11.83;10.77;;;15.20;63.20;;;;;;5025804;28;20507;-55
2022/01/19 10:07:16;;;;;;;11.60;10.60;;;15.60;59.30;;;;;;5015440;28;20522;-54
2022/01/19 10:09:59;;;;;;;11.87;10.77;;;15.40;60.30;;;;;;5022831;28;20435;-57
2022/01/19 10:18:08;;;;;;;13.07;11.97;;;14.50;60.70;;;;;;5037895;28;20470;-58
2022/01/19 10:20:34;;;;;;;12.60;11.60;;;14.90;60.80;;;;;;5027088;28;20453;-57
2022/01/19 10:22:59;;;;;;;12.17;11.07;;;14.30;60.90;;;;;;5034318;28;20426;-57
2022/01/19 10:25:49;;;;;;;11.70;10.60;;;14.70;63.90;;;;;;5027023;28;20272;-59
2022/01/19 10:28:14;;;;;;;12.30;11.30;;;15.30;59.70;;;;;;5032935;28;20208;-57
2022/01/19 10:30:40;;;;;;;13.10;12.00;;;14.40;59.10;;;;;;5052268;28;20451;-58
2022/01/19 10:33:05;;;;;;;12.40;11.40;;;14.90;60.50;;;;;;5036805;28;20213;-57
2022/01/19 10:35:33;;;;;;;11.83;10.83;;;15.20;58.80;;;;;;5052156;28;20276;-57
2022/01/19 10:38:14;;;;;;;11.47;10.47;;;15.30;56.70;;;;;;5037072;28;20181;-58
2022/01/19 10:40:43;;;;;;;10.20;9.17;;;15.70;55.90;;;;;;5040850;28;20826;-59
2022/01/19 10:43:37;;;;;;;10.33;9.43;;;16.00;54.50;;;;;;5036228;28;20541;-58
2022/01/19 10:46:24;;;;;;;10.50;9.60;;;15.80;54.30;;;;;;5035439;28;20571;-56
2022/01/19 10:48:58;;;;;;;11.90;10.90;;;15.40;54.00;;;;;;5035358;28;20423;-59
2022/01/19 10:51:23;;;;;;;10.83;9.93;;;14.80;56.20;;;;;;5038874;28;20460;-57
2022/01/19 10:54:08;;;;;;;10.30;9.40;;;14.90;55.90;;;;;;5044566;28;20973;-55
2022/01/19 10:56:35;;;;;;;12.53;11.43;;;14.80;54.80;;;;;;5033079;28;20569;-56
2022/01/19 10:59:04;;;;;;;10.27;9.37;;;15.00;55.60;;;;;;5031264;28;20413;-57
2022/01/19 11:01:46;;;;;;;11.03;10.00;;;15.30;53.80;;;;;;5042742;28;20427;-56
2022/01/19 11:04:20;;;;;;;10.20;9.30;;;15.30;54.60;;;;;;5045365;28;20768;-53
2022/01/19 11:07:15;;;;;;;11.17;10.07;;;16.00;55.00;;;;;;5031140;28;20422;-55
2022/01/19 11:09:45;;;;;;;10.20;9.20;;;16.00;52.50;;;;;;5022286;28;20524;-55
2022/01/19 11:12:15;;;;;;;10.73;9.73;;;16.00;52.00;;;;;;5027947;28;20481;-54
2022/01/19 11:14:42;;;;;;;10.63;9.83;;;15.80;51.60;;;;;;5031809;28;20473;-56
2022/01/19 11:17:09;;;;;;;10.80;9.90;;;16.00;52.20;;;;;;5035322;28;20412;-56
2022/01/19 11:19:39;;;;;;;10.10;9.30;;;16.60;51.90;;;;;;5040888;28;21335;-56
2022/01/19 11:22:35;;;;;;;10.67;9.67;;;16.50;51.40;;;;;;5031286;28;20782;-55
2022/01/19 11:25:36;;;;;;;11.27;10.23;;;16.60;51.00;;;;;;5044232;28;20472;-57
2022/01/19 11:28:02;;;;;;;10.83;9.83;;;16.40;50.20;;;;;;5030240;28;20429;-56
2022/01/19 11:30:30;;;;;;;10.90;10.00;;;17.00;49.80;;;;;;5030608;28;20852;-56
2022/01/19 11:33:17;;;;;;;10.77;9.87;;;17.30;49.50;;;;;;5029472;28;20512;-56
2022/01/19 11:35:47;;;;;;;11.40;10.40;;;16.80;48.90;;;;;;5031191;28;20409;-56
2022/01/19 11:38:34;;;;;;;10.90;10.00;;;16.50;49.80;;;;;;5030447;28;20413;-56
2022/01/19 11:41:03;;;;;;;11.43;10.43;;;16.50;50.60;;;;;;5030203;28;20437;-58
2022/01/19 11:43:30;;;;;;;12.10;11.00;;;16.80;49.40;;;;;;5030803;28;20750;-57
2022/01/19 11:45:57;;;;;;;11.10;10.17;;;16.90;49.40;;;;;;5032841;28;20405;-56
2022/01/19 11:48:26;;;;;;;12.00;10.93;;;16.80;48.90;;;;;;5030943;28;20422;-54
2022/01/19 11:50:53;;;;;;;11.00;10.10;;;16.50;49.60;;;;;;5031123;28;20454;-57
2022/01/19 11:53:19;;;;;;;12.67;11.57;;;16.60;49.10;;;;;;5030546;28;20450;-55
2022/01/19 11:56:20;;;;;;;11.87;10.87;;;16.40;50.00;;;;;;5031026;28;21167;-55
2022/01/19 11:59:10;;;;;;;11.90;10.70;;;16.10;51.50;;;;;;5040660;28;20429;-57
2022/01/19 12:01:37;;;;;;;11.00;10.10;;;16.20;49.90;;;;;;5044685;28;20443;-54
2022/01/19 12:04:17;;;;;;;11.07;10.17;;;15.80;50.90;;;;;;5028195;28;21292;-57
2022/01/19 12:06:43;;;;;;;10.57;9.67;;;15.70;51.20;;;;;;5035295;28;20421;-58
2022/01/19 12:09:11;;;;;;;11.93;10.93;;;16.10;50.80;;;;;;5048389;28;20443;-58
2022/01/19 12:11:39;;;;;;;11.30;10.40;;;16.20;50.40;;;;;;5047967;28;20205;-57
2022/01/19 12:14:17;;;;;;;11.10;10.20;;;15.70;49.90;;;;;;5048307;28;20883;-56
2022/01/19 12:16:59;;;;;;;12.27;11.27;;;15.30;50.60;;;;;;5050128;28;20412;-56
2022/01/19 12:19:28;;;;;;;12.13;11.03;;;14.90;52.30;;;;;;5043523;28;20431;-59
2022/01/19 12:22:05;;;;;;;11.37;10.50;;;15.00;51.40;;;;;;5033110;28;20437;-58
2022/01/19 12:24:54;;;;;;;11.03;10.00;;;15.00;51.70;;;;;;5041586;28;20421;-58
2022/01/19 12:27:19;;;;;;;11.40;10.50;;;13.70;50.80;;;;;;5021299;28;20423;-51
2022/01/19 12:30:06;;;;;;;11.40;10.40;;;13.60;53.00;;;;;;5025383;28;20431;-54
2022/01/19 12:32:44;;;;;;;11.70;10.70;;;13.60;53.10;;;;;;5011676;28;20286;-57
2022/01/19 12:35:17;;;;;;;11.40;10.40;;;13.30;53.10;;;;;;5012242;28;21154;-57
2022/01/19 12:37:55;;;;;;;11.30;10.30;;;13.30;53.60;;;;;;5013216;28;20522;-56
2022/01/19 12:40:24;;;;;;;11.73;10.73;;;13.70;53.80;;;;;;5016938;28;21105;-53
2022/01/19 12:42:58;;;;;;;10.73;9.73;;;13.20;52.20;;;;;;5030008;28;20427;-56
2022/01/19 12:45:34;;;;;;;10.83;9.83;;;13.10;53.80;;;;;;5022890;28;20431;-53
2022/01/19 12:48:07;;;;;;;11.37;10.37;;;13.20;53.30;;;;;;5031245;28;20761;-56
2022/01/19 12:50:32;;;;;;;11.83;10.83;;;13.10;54.30;;;;;;5040069;28;20461;-53
2022/01/19 12:53:01;;;;;;;11.93;10.93;;;13.20;54.90;;;;;;5035210;28;20842;-56
2022/01/19 12:55:32;;;;;;;11.43;10.50;;;13.30;55.60;;;;;;5031410;28;20182;-58
2022/01/19 12:57:58;;;;;;;13.83;12.53;;;13.40;55.50;;;;;;5049312;28;20938;-55
2022/01/19 13:00:29;;;;;;;11.40;10.40;;;13.10;56.30;;;;;;5032188;28;20422;-54
2022/01/19 13:02:57;;;;;;;11.63;10.63;;;13.40;56.70;;;;;;5029458;28;20414;-55
2022/01/19 13:05:24;;;;;;;11.30;10.40;;;13.80;55.70;;;;;;5028217;28;20433;-54
2022/01/19 13:07:56;;;;;;;11.40;10.40;;;13.50;55.50;;;;;;5029472;28;20743;-54
2022/01/19 13:15:47;;;;;;;11.47;10.13;;;13.80;54.10;;;;;;5029409;28;20983;-55
2022/01/19 13:18:43;;;;;;;11.30;10.30;;;13.70;54.60;;;;;;5031684;28;20433;-55
2022/01/19 13:21:15;;;;;;;11.10;9.57;;;13.80;54.70;;;;;;5029891;28;20528;-56
2022/01/19 13:23:57;;;;;;;10.27;9.47;;;13.80;54.60;;;;;;5042219;28;20406;-58
2022/01/19 13:26:24;;;;;;;11.30;10.30;;;13.80;54.20;;;;;;5038596;28;20484;-54
2022/01/19 13:28:50;;;;;;;11.40;10.40;;;13.80;54.80;;;;;;5043393;28;20422;-58
2022/01/19 13:31:23;;;;;;;10.63;9.70;;;13.70;55.10;;;;;;5037356;28;20471;-55
2022/01/19 13:34:00;;;;;;;10.80;9.90;;;13.90;53.90;;;;;;5032441;28;20244;-58
2022/01/19 13:36:26;;;;;;;10.80;9.90;;;13.70;54.50;;;;;;5017545;28;20949;-58
2022/01/19 13:38:53;;;;;;;10.93;10.03;;;13.60;54.70;;;;;;5029000;28;20500;-56
2022/01/19 13:41:19;;;;;;;11.20;10.20;;;13.70;54.40;;;;;;5048209;28;20415;-57
2022/01/19 13:43:44;;;;;;;11.20;10.20;;;13.50;54.20;;;;;;5048267;28;20413;-55
2022/01/19 13:46:14;;;;;;;9.33;8.53;;;13.40;55.40;;;;;;5043922;28;20184;-57
2022/01/19 13:48:45;;;;;;;9.80;9.10;;;13.50;54.60;;;;;;5028824;28;20185;-54
2022/01/19 13:51:14;;;;;;;11.50;10.50;;;13.70;53.90;;;;;;5028009;28;20465;-56
2022/01/19 13:53:49;;;;;;;10.90;9.57;;;13.10;53.70;;;;;;5037844;28;20428;-59
2022/01/19 13:56:29;;;;;;;10.97;9.97;;;13.00;55.00;;;;;;5037794;28;20459;-57
2022/01/19 13:59:09;;;;;;;10.30;9.40;;;13.20;55.00;;;;;;5042806;28;20426;-56
2022/01/19 14:01:39;;;;;;;9.03;8.23;;;13.40;54.30;;;;;;5047276;28;20777;-54
2022/01/19 14:04:10;;;;;;;10.43;9.43;;;12.60;54.50;;;;;;5046836;28;20413;-57
2022/01/19 14:06:41;;;;;;;10.10;9.30;;;12.50;55.60;;;;;;5032068;28;20794;-54